Time;durP1;ratioP1;P1;durP2;ratioP2;P2;SDS_P1;SDS_P2;PMS_P1;PMS_P2;Temp;Humidity;BMP_temperature;BMP_pressure;BME280_temperature;BME280_humidity;BME280_pressure;Samples;Min_cycle;Max_cycle;Signal;HPM_P1;HPM_P2
2022/09/03 00:02:17;;;;;;;1999.90;999.90;;;15.00;86.40;;;;;;5079317;28;20047;-60
2022/09/03 00:04:50;;;;;;;1999.90;999.90;;;14.90;86.70;;;;;;5092679;28;20048;-60
2022/09/03 00:07:22;;;;;;;1999.90;999.90;;;14.90;86.90;;;;;;5052206;28;20124;-60
2022/09/03 00:09:55;;;;;;;1999.90;999.90;;;14.80;87.30;;;;;;5052706;28;20106;-60
2022/09/03 00:12:25;;;;;;;1999.90;999.90;;;14.70;87.70;;;;;;5076070;28;20060;-60
2022/09/03 00:15:00;;;;;;;1999.90;999.90;;;14.80;88.00;;;;;;5053714;28;20084;-60
2022/09/03 00:17:33;;;;;;;1999.90;999.90;;;14.70;88.40;;;;;;5072920;28;20076;-60
2022/09/03 00:20:12;;;;;;;1999.90;999.90;;;14.70;88.70;;;;;;5079380;28;20075;-60
2022/09/03 00:22:43;;;;;;;1999.90;999.90;;;14.70;89.20;;;;;;5093050;28;20105;-60
2022/09/03 00:25:15;;;;;;;1999.90;999.90;;;14.70;89.70;;;;;;5092870;28;20050;-60
2022/09/03 00:27:44;;;;;;;1999.90;999.90;;;14.60;90.00;;;;;;5091868;28;20044;-60
2022/09/03 00:30:12;;;;;;;1999.90;999.90;;;14.60;90.10;;;;;;5073024;28;20091;-60
2022/09/03 00:32:51;;;;;;;1999.90;999.90;;;14.60;90.40;;;;;;5072620;28;20095;-60
2022/09/03 00:35:25;;;;;;;1999.90;999.90;;;14.60;90.50;;;;;;5071584;28;20119;-60
2022/09/03 00:37:53;;;;;;;1999.90;999.90;;;14.70;91.70;;;;;;5081813;28;20051;-60
2022/09/03 00:40:38;;;;;;;1999.90;999.90;;;14.50;91.00;;;;;;5092805;28;20040;-60
2022/09/03 00:43:17;;;;;;;1999.90;999.90;;;14.40;91.20;;;;;;5091306;28;20501;-60
2022/09/03 00:46:04;;;;;;;1999.90;999.90;;;14.40;91.40;;;;;;5091999;28;20048;-60
2022/09/03 00:48:41;;;;;;;1999.90;999.90;;;14.40;91.70;;;;;;5072941;28;20052;-60
2022/09/03 00:51:19;;;;;;;1999.90;999.90;;;14.30;91.90;;;;;;5058287;28;20044;-60
2022/09/03 00:54:11;;;;;;;1999.90;999.90;;;14.30;92.30;;;;;;5075943;28;20053;-60
2022/09/03 00:56:48;;;;;;;1999.90;999.90;;;14.30;92.60;;;;;;5091916;28;20090;-60
2022/09/03 00:59:40;;;;;;;1999.90;999.90;;;14.20;92.80;;;;;;5096426;28;20076;-60
2022/09/03 01:02:34;;;;;;;1999.90;999.90;;;14.20;93.10;;;;;;5095570;28;20137;-60
2022/09/03 01:05:01;;;;;;;1999.90;999.90;;;14.10;93.60;;;;;;5095579;28;20083;-60
2022/09/03 01:07:45;;;;;;;1999.90;999.90;;;14.10;93.80;;;;;;5096211;28;20501;-60
2022/09/03 01:10:13;;;;;;;1999.90;999.90;;;14.10;94.10;;;;;;5077132;28;20489;-60
2022/09/03 01:13:00;;;;;;;1999.90;999.90;;;14.10;94.30;;;;;;5080891;28;20044;-60
2022/09/03 01:15:26;;;;;;;1999.90;999.90;;;14.10;94.70;;;;;;5091410;28;20052;-60
2022/09/03 01:18:14;;;;;;;1999.90;999.90;;;14.20;97.10;;;;;;5075243;28;20363;-60
2022/09/03 01:21:03;;;;;;;1999.90;999.90;;;14.00;95.20;;;;;;5057301;28;20052;-60
2022/09/03 01:23:58;;;;;;;1999.90;999.90;;;14.00;95.50;;;;;;5054779;28;20939;-60
2022/09/03 01:26:43;;;;;;;1999.90;999.90;;;14.00;95.80;;;;;;5037396;28;20451;-60
2022/09/03 01:29:31;;;;;;;1999.90;999.90;;;13.90;96.20;;;;;;5074395;28;20124;-60
2022/09/03 01:32:03;;;;;;;1999.90;999.90;;;13.90;96.20;;;;;;5074680;28;20535;-60
2022/09/03 01:34:42;;;;;;;1999.90;999.90;;;13.90;96.40;;;;;;5074958;28;20591;-60
2022/09/03 01:37:21;;;;;;;1999.90;999.90;;;13.80;96.30;;;;;;5057419;28;20470;-60
2022/09/03 01:40:01;;;;;;;1999.90;999.90;;;13.80;96.90;;;;;;5084708;28;20044;-60
2022/09/03 01:42:42;;;;;;;1999.90;999.90;;;13.80;97.00;;;;;;5095216;28;20489;-60
2022/09/03 01:45:30;;;;;;;1999.90;999.90;;;13.80;97.30;;;;;;5079533;28;20044;-60
2022/09/03 01:48:11;;;;;;;1999.90;999.90;;;13.80;97.50;;;;;;5078422;28;20405;-60
2022/09/03 01:50:56;;;;;;;1999.90;999.90;;;13.70;97.70;;;;;;5095610;28;20113;-60
2022/09/03 01:53:37;;;;;;;1999.90;999.90;;;13.70;97.90;;;;;;5076421;28;20047;-60
2022/09/03 01:56:18;;;;;;;1999.90;999.90;;;13.70;98.00;;;;;;5095082;28;20044;-60
2022/09/03 01:58:54;;;;;;;1999.90;999.90;;;13.70;98.10;;;;;;5094263;28;20040;-60
2022/09/03 02:01:27;;;;;;;1999.90;999.90;;;13.60;98.30;;;;;;5094828;28;20560;-60
2022/09/03 02:03:58;;;;;;;1999.90;999.90;;;13.60;98.50;;;;;;5094766;28;20097;-60
2022/09/03 02:06:26;;;;;;;1999.90;999.90;;;13.60;98.60;;;;;;5083889;28;20037;-60
2022/09/03 02:08:52;;;;;;;1999.90;999.90;;;13.60;98.70;;;;;;5074928;28;20055;-60
2022/09/03 02:11:19;;;;;;;1999.90;999.90;;;13.60;98.80;;;;;;5074512;28;20044;-60
2022/09/03 02:13:49;;;;;;;1999.90;999.90;;;13.60;98.80;;;;;;5070741;28;20394;-60
2022/09/03 02:16:20;;;;;;;1999.90;999.90;;;13.60;99.00;;;;;;5054177;28;20050;-60
2022/09/03 02:18:50;;;;;;;1999.90;999.90;;;13.60;99.10;;;;;;5067616;28;20073;-60
2022/09/03 02:21:19;;;;;;;1999.90;999.90;;;13.50;99.20;;;;;;5066760;28;20080;-60
2022/09/03 02:23:45;;;;;;;1999.90;999.90;;;13.50;99.20;;;;;;5069695;28;20467;-60
2022/09/03 02:26:14;;;;;;;1999.90;999.90;;;13.60;99.30;;;;;;5073722;28;20060;-60
2022/09/03 02:28:40;;;;;;;1999.90;999.90;;;13.50;99.30;;;;;;5061215;28;20071;-60
2022/09/03 02:31:06;;;;;;;1999.90;999.90;;;13.50;99.60;;;;;;5069189;28;20049;-60
2022/09/03 02:33:38;;;;;;;1999.90;999.90;;;13.50;99.30;;;;;;5068826;28;20041;-60
2022/09/03 02:36:06;;;;;;;1999.90;999.90;;;13.50;99.40;;;;;;5067792;28;20047;-60
2022/09/03 02:38:33;;;;;;;1999.90;999.90;;;13.50;99.40;;;;;;5047595;28;20549;-60
2022/09/03 02:40:59;;;;;;;1999.90;999.90;;;13.50;99.40;;;;;;5070327;28;20063;-60
2022/09/03 02:43:33;;;;;;;1999.90;999.90;;;13.50;99.50;;;;;;5073599;28;20466;-60
2022/09/03 02:46:02;;;;;;;1999.90;999.90;;;13.50;99.50;;;;;;5070993;28;20067;-60
2022/09/03 02:48:28;;;;;;;1999.90;999.90;;;13.40;99.60;;;;;;5072466;28;20409;-60
2022/09/03 02:50:54;;;;;;;1999.90;999.90;;;13.40;99.60;;;;;;5074278;28;20056;-60
2022/09/03 02:53:20;;;;;;;1999.90;999.90;;;13.40;99.70;;;;;;5073247;28;20044;-60
2022/09/03 02:55:46;;;;;;;1999.90;999.90;;;13.40;99.80;;;;;;5072322;28;20044;-60
2022/09/03 02:58:12;;;;;;;1999.90;999.90;;;13.40;99.80;;;;;;5073416;28;20086;-60
2022/09/03 03:00:38;;;;;;;1999.90;999.90;;;13.30;99.90;;;;;;5057659;28;20102;-60
2022/09/03 03:03:04;;;;;;;1999.90;999.90;;;13.30;99.90;;;;;;5072259;28;20048;-60
2022/09/03 03:05:49;;;;;;;1999.90;999.90;;;13.30;99.90;;;;;;5073262;28;20504;-60
2022/09/03 03:08:19;;;;;;;1999.90;999.90;;;13.40;99.90;;;;;;5072633;28;20045;-60
2022/09/03 03:10:47;;;;;;;1999.90;999.90;;;13.30;99.90;;;;;;5071427;28;20059;-60
2022/09/03 03:13:13;;;;;;;1999.90;999.90;;;13.40;99.90;;;;;;5072821;28;20083;-60
2022/09/03 03:15:39;;;;;;;1999.90;999.90;;;13.30;99.90;;;;;;5063862;28;20088;-60
2022/09/03 03:18:06;;;;;;;1999.90;999.90;;;13.40;99.90;;;;;;5052474;28;20048;-60
2022/09/03 03:20:32;;;;;;;1999.90;999.90;;;13.40;99.90;;;;;;5053538;28;20095;-60
2022/09/03 03:23:01;;;;;;;1999.90;999.90;;;13.40;99.90;;;;;;5052715;28;20052;-60
2022/09/03 03:25:26;;;;;;;1999.90;999.90;;;13.50;99.90;;;;;;5052562;28;20045;-60
2022/09/03 03:27:55;;;;;;;1999.90;999.90;;;13.50;99.90;;;;;;5053166;28;20490;-60
2022/09/03 03:30:22;;;;;;;1999.90;999.90;;;13.50;99.90;;;;;;5052461;28;20505;-60
2022/09/03 03:32:47;;;;;;;1999.90;999.90;;;13.50;99.90;;;;;;5052979;28;20045;-60
2022/09/03 03:35:13;;;;;;;1999.90;999.90;;;13.50;99.90;;;;;;5066070;28;20044;-60
2022/09/03 03:37:39;;;;;;;1999.90;999.90;;;13.50;99.90;;;;;;5072518;28;20036;-60
2022/09/03 03:40:06;;;;;;;1999.90;999.90;;;13.50;99.90;;;;;;5073017;28;20052;-60
2022/09/03 03:42:33;;;;;;;1999.90;999.90;;;13.50;99.90;;;;;;5072159;28;20045;-60
2022/09/03 03:45:01;;;;;;;1999.90;999.90;;;13.50;99.90;;;;;;5072400;28;20048;-60
2022/09/03 03:47:29;;;;;;;1999.90;999.90;;;13.40;99.90;;;;;;5062080;28;20045;-60
2022/09/03 03:49:57;;;;;;;1999.90;999.90;;;13.50;99.90;;;;;;5052990;28;20048;-59
2022/09/03 03:52:24;;;;;;;1999.90;999.90;;;13.50;99.90;;;;;;5051901;28;20073;-60
2022/09/03 03:54:50;;;;;;;1999.90;999.90;;;13.50;99.90;;;;;;5052822;28;20541;-60
2022/09/03 03:57:18;;;;;;;1999.90;999.90;;;13.50;99.90;;;;;;5053081;28;20040;-60
2022/09/03 03:59:45;;;;;;;1999.90;999.90;;;13.50;99.90;;;;;;5052288;28;20128;-60
2022/09/03 04:02:11;;;;;;;1999.90;999.90;;;13.50;99.90;;;;;;5068459;28;20398;-60
2022/09/03 04:04:37;;;;;;;1999.90;999.90;;;13.50;99.90;;;;;;5072998;28;20048;-60
2022/09/03 04:07:03;;;;;;;1999.90;999.90;;;13.50;99.90;;;;;;5046089;28;20049;-60
2022/09/03 04:09:29;;;;;;;1999.90;999.90;;;13.50;99.90;;;;;;5051536;28;20037;-60
2022/09/03 04:11:56;;;;;;;1999.90;999.90;;;13.50;99.90;;;;;;5052001;28;20546;-60
2022/09/03 04:14:23;;;;;;;1999.90;999.90;;;13.40;99.90;;;;;;5033860;28;20048;-60
2022/09/03 04:16:49;;;;;;;1999.90;999.90;;;13.40;99.90;;;;;;5070338;28;20057;-60
2022/09/03 04:19:16;;;;;;;1999.90;999.90;;;13.40;99.90;;;;;;5071272;28;20462;-60
2022/09/03 04:21:42;;;;;;;1999.90;999.90;;;13.40;99.90;;;;;;5072112;28;20040;-60
2022/09/03 04:24:08;;;;;;;1999.90;999.90;;;13.40;99.90;;;;;;5056983;28;20788;-60
2022/09/03 04:26:35;;;;;;;1999.90;999.90;;;13.40;99.90;;;;;;5057165;28;20040;-60
2022/09/03 04:29:05;;;;;;;1999.90;999.90;;;13.30;99.90;;;;;;5075903;28;20040;-59
2022/09/03 04:31:32;;;;;;;1999.90;999.90;;;13.30;99.90;;;;;;5057733;28;20056;-59
2022/09/03 04:33:58;;;;;;;1999.90;999.90;;;13.30;99.90;;;;;;5075260;28;20459;-59
2022/09/03 04:36:25;;;;;;;1999.90;999.90;;;13.40;99.90;;;;;;5075520;28;20479;-60
2022/09/03 04:38:53;;;;;;;1999.90;999.90;;;13.30;99.90;;;;;;5075559;28;20044;-60
2022/09/03 04:41:23;;;;;;;1999.90;999.90;;;13.30;99.90;;;;;;5075305;28;20029;-60
2022/09/03 04:43:51;;;;;;;1999.90;999.90;;;13.40;99.90;;;;;;5076132;28;20150;-60
2022/09/03 04:46:18;;;;;;;1999.90;999.90;;;13.30;99.90;;;;;;5072854;28;20043;-60
2022/09/03 04:48:47;;;;;;;1999.90;999.90;;;13.40;99.90;;;;;;5075384;28;20084;-60
2022/09/03 04:51:16;;;;;;;1999.90;999.90;;;13.30;99.90;;;;;;5076414;28;20131;-60
2022/09/03 04:53:44;;;;;;;1999.90;999.90;;;13.30;99.90;;;;;;5075408;28;20040;-59
2022/09/03 04:56:13;;;;;;;1999.90;999.90;;;13.30;99.90;;;;;;5075079;28;20102;-60
2022/09/03 04:58:39;;;;;;;1999.90;999.90;;;13.30;99.90;;;;;;5073028;28;20574;-60
2022/09/03 05:01:08;;;;;;;1999.90;999.90;;;13.30;99.90;;;;;;5057561;28;20048;-59
2022/09/03 05:03:36;;;;;;;1999.90;999.90;;;13.40;99.90;;;;;;5075905;28;20044;-59
2022/09/03 05:06:02;;;;;;;1999.90;999.90;;;13.30;99.90;;;;;;5075647;28;20094;-60
2022/09/03 05:08:27;;;;;;;1999.90;999.90;;;13.40;99.90;;;;;;5074153;28;20051;-59
2022/09/03 05:11:12;;;;;;;1999.90;999.90;;;13.40;99.90;;;;;;5074893;28;20036;-60
2022/09/03 05:13:38;;;;;;;1999.90;999.90;;;13.40;99.90;;;;;;5074842;28;20139;-60
2022/09/03 05:16:07;;;;;;;1999.90;999.90;;;13.40;99.90;;;;;;5056023;28;20131;-59
2022/09/03 05:18:35;;;;;;;1999.90;999.90;;;13.40;99.90;;;;;;5072872;28;20048;-59
2022/09/03 05:21:06;;;;;;;1999.90;999.90;;;13.40;99.90;;;;;;5074775;28;20040;-59
2022/09/03 05:23:36;;;;;;;1999.90;999.90;;;13.40;99.90;;;;;;5073082;28;20048;-59
2022/09/03 05:26:07;;;;;;;1999.90;999.90;;;13.40;99.90;;;;;;5075009;28;20494;-60
2022/09/03 05:28:35;;;;;;;1999.90;999.90;;;13.40;99.90;;;;;;5072272;28;20053;-60
2022/09/03 05:31:03;;;;;;;1999.90;999.90;;;13.50;99.90;;;;;;5075123;28;20045;-60
2022/09/03 05:33:33;;;;;;;1999.90;999.90;;;13.60;99.90;;;;;;5074349;28;20478;-59
2022/09/03 05:36:03;;;;;;;1999.90;999.90;;;13.60;99.90;;;;;;5074037;28;20116;-59
2022/09/03 05:38:29;;;;;;;1999.90;999.90;;;13.70;99.90;;;;;;5073327;28;20482;-60
2022/09/03 05:41:03;;;;;;;1999.90;999.90;;;13.70;99.90;;;;;;5075075;28;20032;-60
2022/09/03 05:43:30;;;;;;;1999.90;999.90;;;13.80;99.90;;;;;;5073873;28;20052;-60
2022/09/03 05:45:59;;;;;;;1999.90;999.90;;;13.90;99.90;;;;;;5074618;28;20075;-60
2022/09/03 05:48:27;;;;;;;1999.90;999.90;;;14.00;99.90;;;;;;5075880;28;20067;-60
2022/09/03 05:50:59;;;;;;;1999.90;999.90;;;14.00;99.90;;;;;;5073897;28;20115;-60
2022/09/03 05:53:26;;;;;;;1999.90;999.90;;;14.10;99.90;;;;;;5074273;28;20044;-60
2022/09/03 05:55:57;;;;;;;1999.90;999.90;;;14.10;99.90;;;;;;5074746;28;20490;-59
2022/09/03 05:58:24;;;;;;;1999.90;999.90;;;14.20;99.90;;;;;;5073778;28;20041;-60
2022/09/03 06:00:50;;;;;;;1999.90;999.90;;;14.30;99.90;;;;;;5055773;28;20048;-59
2022/09/03 06:03:16;;;;;;;1999.90;999.90;;;14.40;99.90;;;;;;5074322;28;20105;-60
2022/09/03 06:05:50;;;;;;;1999.90;999.90;;;14.50;99.90;;;;;;5070643;28;20153;-59
2022/09/03 06:08:16;;;;;;;1999.90;999.90;;;14.60;99.90;;;;;;5073876;28;20611;-60
2022/09/03 06:10:42;;;;;;;1999.90;999.90;;;14.60;99.90;;;;;;5074726;28;20131;-59
2022/09/03 06:13:08;;;;;;;1999.90;999.90;;;14.70;99.60;;;;;;5076638;28;20379;-60
2022/09/03 06:15:33;;;;;;;1999.90;999.90;;;14.80;99.60;;;;;;5076521;28;20414;-60
2022/09/03 06:17:59;;;;;;;1999.90;999.90;;;14.90;99.40;;;;;;5094928;28;20478;-60
2022/09/03 06:20:27;;;;;;;1999.90;999.90;;;15.00;99.20;;;;;;5080901;28;20045;-60
2022/09/03 06:22:54;;;;;;;1999.90;999.90;;;15.10;99.10;;;;;;5074712;28;20045;-60
2022/09/03 06:25:20;;;;;;;1999.90;999.90;;;15.20;99.00;;;;;;5056339;28;20318;-59
2022/09/03 06:27:46;;;;;;;1999.90;999.90;;;15.30;98.90;;;;;;5073981;28;20039;-60
2022/09/03 06:30:12;;;;;;;1999.90;999.90;;;15.40;98.70;;;;;;5074271;28;20106;-60
2022/09/03 06:32:45;;;;;;;1999.90;999.90;;;15.50;98.50;;;;;;5081237;28;20045;-59
2022/09/03 06:35:12;;;;;;;1999.90;999.90;;;15.50;98.20;;;;;;5073728;28;20047;-59
2022/09/03 06:37:39;;;;;;;1999.90;999.90;;;15.60;98.10;;;;;;5072250;28;20210;-60
2022/09/03 06:40:12;;;;;;;1999.90;999.90;;;15.70;98.00;;;;;;5071339;28;20044;-60
2022/09/03 06:42:39;;;;;;;1999.90;999.90;;;15.80;97.90;;;;;;5072265;28;20041;-60
2022/09/03 06:45:08;;;;;;;1999.90;999.90;;;16.00;97.80;;;;;;5070785;28;20037;-60
2022/09/03 06:47:34;;;;;;;1999.90;999.90;;;16.10;97.60;;;;;;5073029;28;20048;-60
2022/09/03 06:50:01;;;;;;;1999.90;999.90;;;16.20;97.50;;;;;;5088793;28;20063;-60
2022/09/03 06:52:27;;;;;;;1999.90;999.90;;;16.40;97.10;;;;;;5094096;28;20040;-60
2022/09/03 06:54:53;;;;;;;1999.90;999.90;;;16.50;97.00;;;;;;5093429;28;20179;-59
2022/09/03 06:57:19;;;;;;;1999.90;999.90;;;16.60;96.70;;;;;;5093565;28;20131;-60
2022/09/03 06:59:46;;;;;;;1999.90;999.90;;;16.90;96.50;;;;;;5082512;28;20047;-59
2022/09/03 07:02:12;;;;;;;1999.90;999.90;;;16.90;96.00;;;;;;5072005;28;20482;-60
2022/09/03 07:04:37;;;;;;;1999.90;999.90;;;16.90;96.10;;;;;;5071531;28;20052;-60
2022/09/03 07:07:03;;;;;;;1999.90;999.90;;;17.00;95.90;;;;;;5073334;28;20044;-60
2022/09/03 07:09:31;;;;;;;1999.90;999.90;;;17.10;95.60;;;;;;5073131;28;20053;-60
2022/09/03 07:11:56;;;;;;;1999.90;999.90;;;17.20;95.50;;;;;;5073726;28;20067;-60
2022/09/03 07:14:23;;;;;;;1999.90;999.90;;;17.30;95.40;;;;;;5071276;28;20486;-60
2022/09/03 07:16:49;;;;;;;1999.90;999.90;;;17.40;95.20;;;;;;5073678;28;20044;-60
2022/09/03 07:19:15;;;;;;;1999.90;999.90;;;17.60;94.90;;;;;;5072526;28;20382;-60
2022/09/03 07:21:42;;;;;;;1999.90;999.90;;;;;;;;;;5069649;28;20040;-60
2022/09/03 07:24:09;;;;;;;1999.90;999.90;;;17.80;94.70;;;;;;5072167;28;20449;-60
2022/09/03 07:26:38;;;;;;;1999.90;999.90;;;17.90;94.90;;;;;;5072771;28;20055;-60
2022/09/03 07:29:06;;;;;;;1999.90;999.90;;;18.00;94.50;;;;;;5069174;28;20041;-60
2022/09/03 07:31:36;;;;;;;1999.90;999.90;;;18.20;94.40;;;;;;5072181;28;20114;-60
2022/09/03 07:34:05;;;;;;;1999.90;999.90;;;18.30;94.20;;;;;;5069481;28;20102;-60
2022/09/03 07:36:37;;;;;;;1999.90;999.90;;;18.40;94.00;;;;;;5071449;28;20052;-60
2022/09/03 07:39:04;;;;;;;1999.90;999.90;;;18.50;93.60;;;;;;5070137;28;20036;-60
2022/09/03 07:41:31;;;;;;;1999.90;999.90;;;18.70;93.50;;;;;;5072710;28;20367;-60
2022/09/03 07:43:59;;;;;;;1999.90;999.90;;;18.80;93.30;;;;;;5069296;28;20596;-60
2022/09/03 07:46:26;;;;;;;1999.90;999.90;;;18.90;92.90;;;;;;5070033;28;20158;-61
2022/09/03 07:48:55;;;;;;;1999.90;999.90;;;19.10;92.80;;;;;;5071974;28;20379;-60
2022/09/03 07:51:25;;;;;;;1999.90;999.90;;;19.20;92.60;;;;;;5072393;28;20127;-60
2022/09/03 07:53:53;;;;;;;1999.90;999.90;;;19.30;92.30;;;;;;5047452;28;20048;-60
2022/09/03 07:56:19;;;;;;;1999.90;999.90;;;19.40;92.00;;;;;;5072345;28;20044;-61
2022/09/03 07:58:46;;;;;;;1999.90;999.90;;;19.60;92.00;;;;;;5067138;28;20066;-60
2022/09/03 08:01:14;;;;;;;1999.90;999.90;;;19.70;91.80;;;;;;5072450;28;20086;-60
2022/09/03 08:03:45;;;;;;;1999.90;999.90;;;19.90;91.70;;;;;;5071957;28;20044;-60
2022/09/03 08:06:12;;;;;;;1999.90;999.90;;;20.00;91.40;;;;;;5070862;28;20111;-60
2022/09/03 08:08:39;;;;;;;1999.90;999.90;;;20.10;91.00;;;;;;5073049;28;20456;-60
2022/09/03 08:11:09;;;;;;;1999.90;999.90;;;20.20;90.60;;;;;;5071090;28;20072;-60
2022/09/03 08:13:37;;;;;;;1999.90;999.90;;;20.30;90.50;;;;;;5071617;28;20523;-61
2022/09/03 08:16:04;;;;;;;1999.90;999.90;;;20.50;90.20;;;;;;5069040;28;20059;-61
2022/09/03 08:18:34;;;;;;;1999.90;999.90;;;20.70;90.10;;;;;;5070105;28;20040;-60
2022/09/03 08:21:00;;;;;;;1999.90;999.90;;;20.80;89.00;;;;;;5071664;28;20040;-61
2022/09/03 08:23:26;;;;;;;1999.90;999.90;;;20.90;87.70;;;;;;5071854;28;20538;-60
2022/09/03 08:25:59;;;;;;;1999.90;999.90;;;21.10;87.50;;;;;;5071463;28;20051;-61
2022/09/03 08:28:25;;;;;;;1999.90;999.90;;;21.30;86.90;;;;;;5079866;28;20043;-61
2022/09/03 08:30:51;;;;;;;1999.90;999.90;;;21.40;86.60;;;;;;5071956;28;20178;-61
2022/09/03 08:33:35;;;;;;;1999.90;999.90;;;21.50;85.70;;;;;;5052895;28;20123;-61
2022/09/03 08:36:05;;;;;;;1999.90;999.90;;;21.50;85.00;;;;;;5071251;28;20469;-61
2022/09/03 08:38:33;;;;;;;1999.90;999.90;;;21.50;84.30;;;;;;5072171;28;20048;-60
2022/09/03 08:41:05;;;;;;;1999.90;999.90;;;21.70;83.40;;;;;;5070988;28;20440;-61
2022/09/03 08:43:36;;;;;;;1999.90;999.90;;;21.80;83.60;;;;;;5069060;28;20044;-61
2022/09/03 08:46:02;;;;;;;1999.90;999.90;;;22.00;83.40;;;;;;5071815;28;20036;-61
2022/09/03 08:48:28;;;;;;;1999.90;999.90;;;22.10;82.40;;;;;;5071019;28;20501;-61
2022/09/03 08:50:58;;;;;;;1999.90;999.90;;;22.20;82.00;;;;;;5071219;28;20041;-60
2022/09/03 08:53:33;;;;;;;1999.90;999.90;;;22.20;81.30;;;;;;5070996;28;20045;-60
2022/09/03 08:56:06;;;;;;;1999.90;999.90;;;22.20;81.10;;;;;;5071582;28;20052;-61
2022/09/03 08:58:32;;;;;;;;;;;22.30;81.00;;;;;;5069596;28;20044;-61
2022/09/03 09:01:10;;;;;;;1999.90;999.90;;;22.50;81.60;;;;;;5070451;28;19967;-61
2022/09/03 09:03:46;;;;;;;1999.90;999.90;;;22.70;80.60;;;;;;5063890;28;20059;-61
2022/09/03 09:06:30;;;;;;;1999.90;999.90;;;22.80;79.90;;;;;;5069097;28;20007;-61
2022/09/03 09:09:07;;;;;;;1999.90;999.90;;;23.00;80.30;;;;;;5069208;28;20037;-61
2022/09/03 09:11:42;;;;;;;1999.90;999.90;;;23.10;79.30;;;;;;5072491;28;20088;-61
2022/09/03 09:14:21;;;;;;;1999.90;999.90;;;23.30;78.80;;;;;;5072655;28;20045;-61
2022/09/03 09:16:56;;;;;;;1999.90;999.90;;;23.40;77.40;;;;;;5073593;28;20080;-61
2022/09/03 09:19:49;;;;;;;1999.90;999.90;;;23.50;76.60;;;;;;5074996;28;20051;-61
2022/09/03 09:22:23;;;;;;;1999.90;999.90;;;23.60;76.00;;;;;;5072708;28;20044;-61
2022/09/03 09:24:52;;;;;;;1999.90;999.90;;;23.70;76.50;;;;;;5072442;28;20389;-61
2022/09/03 09:27:18;;;;;;;1999.90;999.90;;;23.80;75.90;;;;;;5074403;28;20055;-61
2022/09/03 09:29:46;;;;;;;;;;;23.90;75.50;;;;;;5073472;28;20088;-61
2022/09/03 09:32:16;;;;;;;1999.90;999.90;;;24.00;75.50;;;;;;5074892;28;19920;-61
2022/09/03 09:34:42;;;;;;;1999.90;999.90;;;24.10;75.10;;;;;;5074700;28;20052;-61
2022/09/03 09:37:12;;;;;;;1999.90;999.90;;;24.30;74.60;;;;;;5075507;28;20106;-61
2022/09/03 09:39:40;;;;;;;1999.90;999.90;;;24.40;74.10;;;;;;5074842;28;20052;-61
2022/09/03 09:42:10;;;;;;;1999.90;999.90;;;24.50;72.60;;;;;;5074529;28;20055;-61
2022/09/03 09:44:37;;;;;;;1999.90;999.90;;;24.70;72.40;;;;;;5074005;28;20051;-61
2022/09/03 09:47:07;;;;;;;1999.90;999.90;;;24.80;72.50;;;;;;5074560;28;20083;-61
2022/09/03 09:49:41;;;;;;;1999.90;999.90;;;24.90;72.70;;;;;;5074434;28;20047;-61
2022/09/03 09:52:11;;;;;;;1999.90;999.90;;;25.10;70.90;;;;;;5073793;28;20039;-61
2022/09/03 09:54:38;;;;;;;1999.90;999.90;;;25.20;70.20;;;;;;5074337;28;20119;-61
2022/09/03 09:57:07;;;;;;;1999.90;999.90;;;25.30;69.80;;;;;;5072401;28;20068;-61
2022/09/03 09:59:36;;;;;;;1999.90;999.90;;;25.40;69.00;;;;;;5071738;28;20442;-61
2022/09/03 10:02:13;;;;;;;1999.90;999.90;;;25.50;67.80;;;;;;5074864;28;20111;-61
2022/09/03 10:04:39;;;;;;;1999.90;999.90;;;25.60;68.40;;;;;;5090577;28;20069;-61
2022/09/03 10:07:24;;;;;;;1999.90;999.90;;;25.70;67.60;;;;;;5095114;28;20448;-61
2022/09/03 10:10:00;;;;;;;1999.90;999.90;;;25.80;67.50;;;;;;5095198;28;20139;-61
2022/09/03 10:12:40;;;;;;;1999.90;999.90;;;26.10;67.30;;;;;;5080786;28;20123;-61
2022/09/03 10:15:24;;;;;;;1999.90;999.90;;;;;;;;;;5074598;28;20049;-61
2022/09/03 10:17:59;;;;;;;1999.90;999.90;;;;;;;;;;5074169;28;20415;-61
2022/09/03 10:20:43;;;;;;;1999.90;999.90;;;27.40;74.90;;;;;;5073547;28;20047;-61
2022/09/03 10:23:19;;;;;;;1999.90;999.90;;;27.90;61.60;;;;;;5074796;28;20052;-61
2022/09/03 10:25:59;;;;;;;1999.90;999.90;;;28.40;60.80;;;;;;5074086;28;20051;-61
2022/09/03 10:28:27;;;;;;;1999.90;999.90;;;29.10;59.10;;;;;;5074420;28;20525;-61
2022/09/03 10:31:07;;;;;;;1999.90;999.90;;;29.70;57.10;;;;;;5074226;28;20131;-61
2022/09/03 10:33:41;;;;;;;1999.90;999.90;;;30.10;55.20;;;;;;5072934;28;20383;-61
2022/09/03 10:36:18;;;;;;;1999.90;999.90;;;30.50;53.40;;;;;;5074197;28;20097;-61
2022/09/03 10:38:46;;;;;;;1999.90;999.90;;;;;;;;;;5073908;28;20040;-61
2022/09/03 10:41:18;;;;;;;1999.90;999.90;;;31.20;51.20;;;;;;5073956;28;20052;-61
2022/09/03 10:43:47;;;;;;;1999.90;999.90;;;31.50;50.60;;;;;;5074352;28;20495;-61
2022/09/03 10:46:15;;;;;;;1999.90;999.90;;;31.70;49.80;;;;;;5073499;28;20049;-61
2022/09/03 10:48:48;;;;;;;1999.90;999.90;;;31.80;49.70;;;;;;5073510;28;20489;-61
2022/09/03 10:51:26;;;;;;;1999.90;999.90;;;32.00;49.30;;;;;;5074207;28;20140;-65
2022/09/03 10:53:59;;;;;;;1999.90;999.90;;;32.30;48.80;;;;;;5073068;28;20094;-61
2022/09/03 10:56:36;;;;;;;1999.90;999.90;;;32.50;48.00;;;;;;5073352;28;20052;-61
2022/09/03 10:59:23;;;;;;;1999.90;999.90;;;32.60;47.20;;;;;;5074012;28;20119;-61
2022/09/03 11:02:20;;;;;;;1999.90;999.90;;;32.70;46.40;;;;;;5073360;28;20083;-61
2022/09/03 11:04:55;;;;;;;1999.90;999.90;;;32.70;46.00;;;;;;5073433;28;20180;-61
2022/09/03 11:07:24;;;;;;;1999.90;999.90;;;32.60;45.90;;;;;;5073011;28;20056;-61
2022/09/03 11:10:31;;;;;;;1999.90;999.90;;;32.60;45.60;;;;;;5073884;28;20044;-61
2022/09/03 11:13:09;;;;;;;1999.90;999.90;;;32.90;45.80;;;;;;5072965;28;20051;-61
2022/09/03 11:15:50;;;;;;;1999.90;999.90;;;33.20;45.50;;;;;;5081038;28;20040;-61
2022/09/03 11:18:33;;;;;;;1999.90;999.90;;;33.30;44.80;;;;;;5093680;28;20044;-61
2022/09/03 11:21:03;;;;;;;1999.90;999.90;;;33.20;44.80;;;;;;5093331;28;20055;-61
2022/09/03 11:23:35;;;;;;;1999.90;999.90;;;33.30;44.70;;;;;;5082537;28;20059;-61
2022/09/03 11:26:06;;;;;;;1999.90;999.90;;;33.80;43.70;;;;;;5072887;28;20665;-61
2022/09/03 11:28:55;;;;;;;1999.90;999.90;;;34.00;43.50;;;;;;5072735;28;20287;-61
2022/09/03 11:31:46;;;;;;;1999.90;999.90;;;34.40;43.70;;;;;;5074812;28;20466;-61
2022/09/03 11:34:15;;;;;;;1999.90;999.90;;;34.70;43.20;;;;;;5092947;28;20041;-61
2022/09/03 11:36:41;;;;;;;1999.90;999.90;;;34.90;43.20;;;;;;5092581;28;20048;-61
2022/09/03 11:39:17;;;;;;;1999.90;999.90;;;35.00;41.70;;;;;;5093598;28;20044;-61
2022/09/03 11:41:44;;;;;;;1999.90;999.90;;;35.10;41.80;;;;;;5077140;28;20047;-60
2022/09/03 11:44:17;;;;;;;1999.90;999.90;;;35.30;41.60;;;;;;5072523;28;20120;-60
2022/09/03 11:46:58;;;;;;;1999.90;999.90;;;35.40;41.40;;;;;;5073123;28;20107;-61
2022/09/03 11:49:28;;;;;;;1999.90;999.90;;;35.60;40.80;;;;;;5073913;28;20123;-61
2022/09/03 11:52:00;;;;;;;1999.90;999.90;;;35.80;39.70;;;;;;5066399;28;20044;-61
2022/09/03 11:54:26;;;;;;;1999.90;999.90;;;35.90;39.50;;;;;;5072990;28;20087;-61
2022/09/03 11:57:10;;;;;;;1999.90;999.90;;;36.10;40.20;;;;;;5071933;28;20048;-61
2022/09/03 11:59:36;;;;;;;1999.90;999.90;;;36.30;40.20;;;;;;5068151;28;20136;-61
2022/09/03 12:02:28;;;;;;;1999.90;999.90;;;36.60;39.80;;;;;;5073049;28;20048;-61
2022/09/03 12:05:24;;;;;;;1999.90;999.90;;;36.80;39.00;;;;;;5072334;28;20107;-61
2022/09/03 12:08:11;;;;;;;1999.90;999.90;;;37.20;39.10;;;;;;5078555;28;20088;-61
2022/09/03 12:10:40;;;;;;;1999.90;999.90;;;37.30;38.90;;;;;;5092031;28;20052;-61
2022/09/03 12:13:25;;;;;;;1999.90;999.90;;;37.40;37.90;;;;;;5074065;28;20055;-61
2022/09/03 12:16:29;;;;;;;1999.90;999.90;;;37.40;38.00;;;;;;5072201;28;20063;-61
2022/09/03 12:19:03;;;;;;;1999.90;999.90;;;37.60;38.20;;;;;;5071502;28;20047;-61
2022/09/03 12:21:29;;;;;;;1999.90;999.90;;;37.80;38.30;;;;;;5072881;28;20048;-61
2022/09/03 12:23:55;;;;;;;1999.90;999.90;;;38.10;38.00;;;;;;5072783;28;20040;-61